Time;durP1;ratioP1;P1;durP2;ratioP2;P2;SDS_P1;SDS_P2;PMS_P1;PMS_P2;Temp;Humidity;BMP_temperature;BMP_pressure;BME280_temperature;BME280_humidity;BME280_pressure;Samples;Min_cycle;Max_cycle;Signal;HPM_P1;HPM_P2
2021/12/22 00:02:11;;;;;;;9.77;2.93;;;;;;;-13.91;46.25;98618.78;4936026;29;20059;-69
2021/12/22 00:04:44;;;;;;;11.70;3.73;;;;;;;-14.00;46.50;98610.78;4955069;28;20043;-69
2021/12/22 00:07:12;;;;;;;11.47;2.77;;;;;;;-13.92;45.99;98620.56;4957289;28;20126;-69
2021/12/22 00:09:38;;;;;;;12.47;3.70;;;;;;;-13.87;46.32;98613.09;4956362;28;20051;-69
2021/12/22 00:12:05;;;;;;;10.27;2.90;;;;;;;-13.83;46.25;98616.25;4955311;29;20077;-69
2021/12/22 00:14:31;;;;;;;8.52;3.00;;;;;;;-13.71;46.11;98611.63;4944565;29;20061;-67
2021/12/22 00:16:58;;;;;;;12.57;3.03;;;;;;;-13.68;45.91;98609.50;4954643;28;20049;-70
2021/12/22 00:19:24;;;;;;;10.37;3.13;;;;;;;-13.72;46.12;98609.97;4956597;29;20144;-70
2021/12/22 00:21:50;;;;;;;11.33;3.30;;;;;;;-13.68;46.01;98614.75;4956820;28;20047;-70
2021/12/22 00:24:18;;;;;;;10.77;2.90;;;;;;;-13.73;45.94;98617.03;4954337;29;20310;-69
2021/12/22 00:26:44;;;;;;;;;;;;;;;-13.68;45.99;98617.41;4954711;28;20042;-69
2021/12/22 00:29:12;;;;;;;11.63;3.20;;;;;;;-13.70;45.65;98618.53;4953202;29;20591;-69
2021/12/22 00:31:43;;;;;;;8.77;2.97;;;;;;;-13.56;45.51;98614.56;4953427;29;20055;-69
2021/12/22 00:34:17;;;;;;;8.43;2.90;;;;;;;-13.58;45.28;98598.94;4955027;28;20515;-70
2021/12/22 00:36:44;;;;;;;7.87;2.87;;;;;;;-13.48;45.25;98608.56;4954871;29;20051;-69
2021/12/22 00:39:11;;;;;;;10.35;2.80;;;;;;;-13.55;45.33;98611.78;4953875;29;20057;-70
2021/12/22 00:41:38;;;;;;;10.43;3.00;;;;;;;-13.72;45.68;98610.78;4954340;29;20415;-68
2021/12/22 00:44:05;;;;;;;8.93;2.90;;;;;;;-13.73;45.64;98613.59;4953983;29;20043;-69
2021/12/22 00:46:32;;;;;;;11.95;3.00;;;;;;;-13.80;45.99;98613.34;4955753;28;20084;-69
2021/12/22 00:48:58;;;;;;;8.40;2.85;;;;;;;-13.85;46.35;98613.78;4950501;29;20043;-69
2021/12/22 00:51:24;;;;;;;8.23;3.07;;;;;;;-13.86;46.20;98604.22;4968578;28;20052;-70
2021/12/22 00:53:50;;;;;;;9.17;2.63;;;;;;;-13.83;46.46;98608.34;4954370;29;20424;-69
2021/12/22 00:56:17;;;;;;;10.17;2.97;;;;;;;-13.79;46.18;98612.38;4954383;29;20423;-69
2021/12/22 00:58:44;;;;;;;11.40;3.07;;;;;;;-13.86;45.99;98609.50;4945380;29;20579;-68
2021/12/22 01:01:11;;;;;;;10.43;2.95;;;;;;;-13.86;46.25;98606.88;4955377;29;20563;-69
2021/12/22 01:03:37;;;;;;;11.50;3.73;;;;;;;-13.88;46.65;98608.81;4954201;29;20053;-69
2021/12/22 01:06:04;;;;;;;10.40;3.20;;;;;;;-13.93;46.67;98615.47;4954916;28;20139;-68
2021/12/22 01:08:30;;;;;;;14.77;3.45;;;;;;;-13.94;46.61;98613.84;4968929;28;20094;-68
2021/12/22 01:10:57;;;;;;;10.97;3.57;;;;;;;-13.93;46.71;98624.19;4954024;29;20062;-68
2021/12/22 01:13:23;;;;;;;10.80;3.60;;;;;;;-13.86;46.65;98627.91;4954106;28;20057;-68
2021/12/22 01:15:51;;;;;;;14.37;4.00;;;;;;;-13.80;46.47;98621.22;4971213;28;20047;-67
2021/12/22 01:18:28;;;;;;;15.93;3.83;;;;;;;-13.95;46.43;98609.56;4952916;29;20047;-68
2021/12/22 01:23:25;;;;;;;12.03;5.47;;;;;;;-13.76;46.05;98624.38;4953922;29;20468;-69
2021/12/22 01:25:52;;;;;;;14.83;4.60;;;;;;;-13.72;45.93;98626.56;4954735;29;20071;-69
2021/12/22 01:28:23;;;;;;;15.93;4.03;;;;;;;-13.78;46.00;98632.41;4967692;28;20051;-69
2021/12/22 01:30:51;;;;;;;11.53;4.00;;;;;;;-13.75;45.99;98626.03;4956417;28;20110;-69
2021/12/22 01:33:18;;;;;;;12.63;4.40;;;;;;;-13.71;45.58;98625.59;4954939;29;20122;-69
2021/12/22 01:35:45;;;;;;;12.35;3.90;;;;;;;-13.75;45.70;98631.28;4951852;29;20073;-69
2021/12/22 01:38:13;;;;;;;12.43;4.20;;;;;;;-13.70;45.81;98629.88;4955383;29;20051;-68
2021/12/22 01:40:41;;;;;;;9.98;3.63;;;;;;;-13.68;45.61;98627.91;4951849;29;20055;-68
2021/12/22 01:43:08;;;;;;;14.23;4.17;;;;;;;-13.86;45.72;98627.91;4967572;28;20579;-67
2021/12/22 01:51:26;;;;;;;11.97;3.40;;;;;;;-13.71;45.47;98614.25;4953186;28;20089;-70
2021/12/22 01:53:58;;;;;;;12.07;4.10;;;;;;;-13.69;45.21;98620.19;4938127;29;20575;-70
2021/12/22 01:56:27;;;;;;;11.00;3.33;;;;;;;-13.78;45.24;98615.81;4954993;29;20416;-70
2021/12/22 01:58:58;;;;;;;13.23;3.87;;;;;;;-13.76;45.44;98621.75;4936947;29;20051;-70
2021/12/22 02:01:25;;;;;;;12.13;3.43;;;;;;;-13.84;45.48;98623.31;4953742;29;20054;-70
2021/12/22 02:03:54;;;;;;;11.33;4.10;;;;;;;-13.89;45.36;98608.94;4950408;29;20052;-69
2021/12/22 02:06:21;;;;;;;13.23;4.47;;;;;;;-13.96;45.52;98611.34;4942437;29;20465;-69
2021/12/22 02:08:47;;;;;;;12.68;4.20;;;;;;;-13.97;45.58;98623.66;4947627;28;20051;-69
2021/12/22 02:11:16;;;;;;;9.77;3.33;;;;;;;-13.94;45.53;98613.84;4966329;28;20075;-70
2021/12/22 02:13:46;;;;;;;12.93;4.40;;;;;;;-13.93;45.82;98613.66;4950238;28;20075;-69
2021/12/22 02:16:15;;;;;;;11.40;3.33;;;;;;;-13.87;45.29;98617.50;4961109;28;20166;-69
2021/12/22 02:18:45;;;;;;;12.80;3.20;;;;;;;-13.78;45.18;98619.28;4959868;28;20397;-69
2021/12/22 02:21:14;;;;;;;12.50;3.30;;;;;;;-13.83;45.17;98622.34;4944820;29;20065;-69
2021/12/22 02:23:40;;;;;;;11.40;3.43;;;;;;;-13.89;45.31;98632.59;4948809;28;20067;-69
2021/12/22 02:28:45;;;;;;;13.50;3.47;;;;;;;-13.88;45.20;98637.72;4947551;28;20140;-70
2021/12/22 02:31:16;;;;;;;11.53;3.37;;;;;;;-13.98;45.31;98631.69;4953183;29;20583;-69
2021/12/22 02:33:45;;;;;;;10.50;3.33;;;;;;;-13.93;45.39;98632.06;4943743;29;20042;-68
2021/12/22 02:36:26;;;;;;;10.30;3.53;;;;;;;-14.07;45.40;98620.25;4950206;28;20051;-69
2021/12/22 02:38:56;;;;;;;11.17;3.87;;;;;;;-13.98;45.23;98629.06;4960734;28;20043;-69
2021/12/22 02:41:28;;;;;;;11.20;3.67;;;;;;;-13.88;45.40;98615.88;4948512;29;20046;-69
2021/12/22 02:43:56;;;;;;;11.77;3.97;;;;;;;-13.79;44.85;98620.25;4960363;28;20056;-66
2021/12/22 02:46:25;;;;;;;13.20;4.17;;;;;;;-13.72;44.85;98634.44;4948929;29;20070;-69
2021/12/22 02:48:52;;;;;;;15.73;4.40;;;;;;;-13.67;44.61;98636.63;4946519;29;20058;-68
2021/12/22 02:51:20;;;;;;;11.25;4.10;;;;;;;-13.75;44.63;98628.66;4946416;29;20563;-69
2021/12/22 02:59:02;;;;;;;10.73;3.90;;;;;;;-13.74;44.89;98639.03;4952017;29;20043;-68
2021/12/22 03:04:10;;;;;;;9.87;3.13;;;;;;;-13.84;44.97;98630.34;4945950;29;20047;-69
2021/12/22 03:07:05;;;;;;;9.53;3.13;;;;;;;-13.79;44.98;98629.94;4951107;28;20051;-69
2021/12/22 03:09:27;;;;;;;11.63;3.67;;;;;;;-13.86;44.76;98627.06;4952863;28;20468;-68
2021/12/22 03:11:56;;;;;;;11.47;3.77;;;;;;;-13.85;44.82;98621.66;4951842;29;20698;-68
2021/12/22 03:14:23;;;;;;;8.60;3.20;;;;;;;-13.84;45.08;98623.31;4952487;29;20407;-69
2021/12/22 03:16:49;;;;;;;;;;;;;;;-13.76;44.41;98622.56;4951453;28;20063;-69
2021/12/22 03:19:17;;;;;;;11.07;4.28;;;;;;;-13.86;44.45;98608.66;4953086;28;20050;-69
2021/12/22 03:21:47;;;;;;;13.13;4.60;;;;;;;-13.86;44.62;98611.28;4968462;28;20523;-69
2021/12/22 03:24:15;;;;;;;11.60;3.50;;;;;;;-14.06;44.86;98614.00;4951788;28;20572;-69
2021/12/22 03:26:43;;;;;;;12.97;3.67;;;;;;;-13.95;44.77;98615.63;4945955;29;20062;-69
2021/12/22 03:29:10;;;;;;;13.40;3.53;;;;;;;-13.86;44.48;98613.91;4949011;29;20059;-69
2021/12/22 03:31:37;;;;;;;9.77;3.75;;;;;;;-13.73;44.33;98618.84;4950231;29;20043;-67
2021/12/22 03:34:03;;;;;;;9.97;3.00;;;;;;;-13.72;44.16;98625.75;4953708;29;20110;-67
2021/12/22 03:36:29;;;;;;;9.40;3.43;;;;;;;-13.84;44.16;98635.63;4950415;28;20077;-68
2021/12/22 03:38:57;;;;;;;9.37;3.13;;;;;;;-13.87;44.26;98631.50;4951488;29;20047;-69
2021/12/22 03:41:23;;;;;;;10.40;3.85;;;;;;;-13.88;44.37;98621.97;4952649;28;20723;-69
2021/12/22 03:43:50;;;;;;;14.03;3.43;;;;;;;-13.89;44.67;98629.97;4952337;29;20043;-70
2021/12/22 03:46:16;;;;;;;14.33;4.40;;;;;;;-13.92;44.67;98623.19;4933350;29;20485;-69
2021/12/22 03:48:42;;;;;;;11.27;3.40;;;;;;;-13.97;44.69;98609.69;4950399;28;20047;-71
2021/12/22 03:51:11;;;;;;;11.80;3.30;;;;;;;-14.03;44.83;98615.53;4964218;28;20057;-70
2021/12/22 03:53:37;;;;;;;9.27;3.20;;;;;;;-13.93;44.89;98632.06;4950824;29;20055;-71
2021/12/22 03:56:04;;;;;;;11.37;3.30;;;;;;;-13.88;44.89;98632.47;4952153;28;20138;-69
2021/12/22 03:58:31;;;;;;;11.40;3.30;;;;;;;-13.94;44.82;98633.03;4951746;29;20079;-69
2021/12/22 04:00:57;;;;;;;10.87;3.60;;;;;;;-13.86;45.04;98635.78;4952346;28;20051;-70
2021/12/22 04:03:28;;;;;;;15.13;4.37;;;;;;;-13.96;44.98;98632.38;4952276;28;20059;-69
2021/12/22 04:05:54;;;;;;;12.73;3.63;;;;;;;-13.92;44.95;98638.97;4951206;29;20571;-69
2021/12/22 04:08:20;;;;;;;10.67;3.30;;;;;;;-13.88;44.96;98644.78;4953021;29;20075;-70
2021/12/22 04:10:49;;;;;;;11.00;3.80;;;;;;;-13.87;45.07;98647.28;4952791;28;20412;-69
2021/12/22 04:13:17;;;;;;;12.43;3.80;;;;;;;-13.89;44.79;98645.75;4951322;29;20468;-70
2021/12/22 04:15:47;;;;;;;12.90;3.87;;;;;;;-13.94;45.25;98638.28;4948878;29;20047;-70
2021/12/22 04:18:15;;;;;;;13.93;4.27;;;;;;;-13.73;44.97;98645.94;4950969;29;20090;-69
2021/12/22 04:20:41;;;;;;;14.40;3.63;;;;;;;-13.71;44.82;98658.94;4950579;29;20508;-69
2021/12/22 04:23:08;;;;;;;12.60;3.93;;;;;;;-13.76;44.76;98651.50;4950713;28;20436;-69
2021/12/22 04:25:36;;;;;;;16.35;4.43;;;;;;;-13.85;45.08;98661.09;4952877;29;20055;-69
2021/12/22 04:28:06;;;;;;;11.53;3.40;;;;;;;-13.95;45.43;98652.41;4951206;29;20095;-69
2021/12/22 04:30:36;;;;;;;10.13;3.50;;;;;;;-14.04;45.59;98659.38;4952294;29;20487;-69
2021/12/22 04:33:03;;;;;;;11.57;3.23;;;;;;;-13.97;45.75;98649.09;4951573;29;20053;-69
2021/12/22 04:35:29;;;;;;;9.65;3.75;;;;;;;-13.97;45.52;98652.56;4950665;29;20397;-70
2021/12/22 04:37:56;;;;;;;10.87;3.73;;;;;;;-13.90;45.26;98652.78;4951863;29;20055;-69
2021/12/22 04:40:22;;;;;;;12.45;3.67;;;;;;;-13.90;45.48;98650.16;4951729;28;20142;-69
2021/12/22 04:42:48;;;;;;;14.93;3.78;;;;;;;-13.94;45.52;98646.19;4949956;28;20251;-69
2021/12/22 04:45:15;;;;;;;13.57;3.87;;;;;;;-13.84;45.33;98654.03;4952218;28;20480;-69
2021/12/22 04:47:44;;;;;;;10.20;3.35;;;;;;;-13.84;45.31;98643.50;4953416;28;20456;-69
2021/12/22 04:50:15;;;;;;;16.40;5.03;;;;;;;-13.82;44.99;98642.41;4956541;28;20055;-69
2021/12/22 04:52:49;;;;;;;22.23;7.63;;;;;;;-13.85;45.08;98650.56;4955613;29;20055;-70
2021/12/22 04:55:16;;;;;;;32.63;8.40;;;;;;;-13.89;45.29;98637.88;4955106;29;20408;-69
2021/12/22 04:57:43;;;;;;;36.87;11.47;;;;;;;-13.96;45.41;98635.00;4956179;28;20055;-69
2021/12/22 05:00:13;;;;;;;36.30;12.10;;;;;;;-13.90;45.30;98647.53;4968471;28;20059;-68
2021/12/22 05:02:39;;;;;;;36.30;12.17;;;;;;;-13.87;45.17;98655.16;4952741;28;20125;-70
2021/12/22 05:05:08;;;;;;;33.07;11.43;;;;;;;-13.96;45.36;98648.13;4955022;28;20042;-70
2021/12/22 05:07:34;;;;;;;34.83;12.87;;;;;;;-13.98;45.28;98645.63;4949677;29;20059;-70
2021/12/22 05:10:00;;;;;;;29.33;10.57;;;;;;;-13.88;45.26;98657.91;4952220;28;20039;-69
2021/12/22 05:12:26;;;;;;;20.13;7.60;;;;;;;-13.88;45.10;98661.38;4952769;28;20058;-70
2021/12/22 05:14:53;;;;;;;17.27;6.73;;;;;;;-13.84;45.07;98659.28;4947197;29;20048;-70
2021/12/22 05:17:39;;;;;;;15.97;5.80;;;;;;;-13.85;45.11;98655.00;4947831;29;20047;-69
2021/12/22 05:20:07;;;;;;;12.30;4.70;;;;;;;-13.94;45.28;98656.69;4951150;28;20402;-69
2021/12/22 05:22:33;;;;;;;14.13;4.87;;;;;;;-14.06;45.32;98647.34;4952542;28;20059;-69
2021/12/22 05:25:02;;;;;;;15.37;4.67;;;;;;;-14.02;45.36;98653.97;4954333;28;20449;-70
2021/12/22 05:27:29;;;;;;;12.20;4.03;;;;;;;-14.02;45.60;98665.31;4953438;28;20134;-70
2021/12/22 05:29:56;;;;;;;15.85;4.40;;;;;;;-13.93;45.12;98663.59;4956037;29;20134;-69
2021/12/22 05:32:26;;;;;;;11.90;4.33;;;;;;;-13.91;45.17;98656.41;4952881;28;20047;-68
2021/12/22 05:34:52;;;;;;;16.10;4.77;;;;;;;-13.84;44.68;98652.22;4951491;29;20543;-70
2021/12/22 05:37:21;;;;;;;;;;;;;;;-13.79;45.04;98649.16;4953257;28;20074;-70
2021/12/22 05:39:47;;;;;;;17.67;5.07;;;;;;;-14.01;44.77;98635.41;4954582;28;19990;-70
2021/12/22 05:42:13;;;;;;;18.07;5.07;;;;;;;-14.03;45.06;98649.69;4953334;28;20064;-70
2021/12/22 05:44:41;;;;;;;13.55;4.60;;;;;;;-14.06;45.06;98640.28;4953035;29;20039;-70
2021/12/22 05:47:07;;;;;;;13.20;4.65;;;;;;;-14.12;45.38;98648.78;4955175;29;20058;-69
2021/12/22 05:49:33;;;;;;;12.63;4.50;;;;;;;-14.12;45.22;98651.41;4968398;28;20130;-70
2021/12/22 05:51:59;;;;;;;14.00;4.17;;;;;;;-14.23;45.14;98662.88;4950840;29;20094;-69
2021/12/22 05:54:27;;;;;;;13.10;4.23;;;;;;;-14.20;45.39;98654.75;4950202;29;20047;-71
2021/12/22 05:56:53;;;;;;;12.57;4.10;;;;;;;-14.18;45.19;98654.59;4953607;28;20043;-70
2021/12/22 05:59:19;;;;;;;13.93;4.43;;;;;;;-14.21;45.17;98655.69;4953119;28;20039;-70
2021/12/22 06:01:45;;;;;;;27.03;4.60;;;;;;;-14.28;45.42;98652.84;4953389;29;20050;-69
2021/12/22 06:04:11;;;;;;;22.20;5.17;;;;;;;-14.19;45.24;98660.81;4965317;28;20512;-70
2021/12/22 06:06:37;;;;;;;18.33;4.87;;;;;;;-14.20;45.15;98659.16;4951680;29;20046;-70
2021/12/22 06:09:04;;;;;;;17.63;5.27;;;;;;;-14.20;44.98;98653.91;4953507;29;20053;-70
2021/12/22 06:11:31;;;;;;;13.90;4.60;;;;;;;-14.19;44.90;98666.06;4953416;28;20065;-70
2021/12/22 06:13:57;;;;;;;16.87;5.63;;;;;;;-14.20;44.86;98653.91;4954340;28;20066;-70
2021/12/22 06:16:24;;;;;;;23.27;5.37;;;;;;;-14.25;44.99;98649.91;4949199;28;20476;-70
2021/12/22 06:18:56;;;;;;;12.30;4.67;;;;;;;-14.19;44.93;98666.91;4951858;28;20054;-70
2021/12/22 06:21:23;;;;;;;12.57;4.57;;;;;;;-14.14;45.10;98653.31;4953959;29;20047;-70
2021/12/22 06:23:49;;;;;;;12.70;3.85;;;;;;;-14.13;44.71;98658.44;4952007;29;20524;-70
2021/12/22 06:26:15;;;;;;;13.03;4.33;;;;;;;-14.28;44.73;98658.09;4964659;28;20075;-70
2021/12/22 06:28:43;;;;;;;16.17;5.20;;;;;;;-14.23;44.83;98659.44;4946213;29;20184;-69
2021/12/22 06:31:09;;;;;;;16.53;5.20;;;;;;;-14.09;44.53;98652.88;4947699;29;20058;-67
2021/12/22 06:33:35;;;;;;;14.30;4.70;;;;;;;-14.05;44.75;98660.34;4953563;28;20058;-67
2021/12/22 06:36:02;;;;;;;14.40;5.57;;;;;;;-13.93;44.27;98662.78;4948457;28;20075;-68
2021/12/22 06:38:28;;;;;;;12.77;4.30;;;;;;;-13.92;44.13;98662.63;4927092;29;20043;-68
2021/12/22 06:40:54;;;;;;;15.37;4.93;;;;;;;-13.80;44.61;98665.91;4957031;28;20035;-68
2021/12/22 06:43:21;;;;;;;11.90;3.87;;;;;;;-13.77;44.28;98672.66;4935266;28;20047;-69
2021/12/22 06:45:48;;;;;;;15.83;4.53;;;;;;;-13.84;44.58;98670.63;4951627;28;20055;-67
2021/12/22 06:48:15;;;;;;;14.57;5.27;;;;;;;-13.77;44.37;98662.16;4925005;29;20047;-68
2021/12/22 06:50:41;;;;;;;15.27;4.60;;;;;;;-13.59;44.24;98662.19;4951566;28;20508;-68
2021/12/22 06:53:07;;;;;;;13.23;4.67;;;;;;;-13.61;44.28;98675.47;4959788;28;20530;-69
2021/12/22 06:55:33;;;;;;;15.47;5.03;;;;;;;-13.66;44.44;98675.09;4952903;28;20039;-68
2021/12/22 06:58:00;;;;;;;15.20;5.10;;;;;;;-13.57;44.16;98676.03;4957326;28;20500;-69
2021/12/22 07:00:26;;;;;;;11.52;4.45;;;;;;;-13.51;44.13;98664.09;4955038;28;20054;-68
2021/12/22 07:02:56;;;;;;;14.73;5.17;;;;;;;-13.47;43.85;98661.03;4950976;28;20047;-68
2021/12/22 07:05:23;;;;;;;14.23;5.07;;;;;;;-13.55;44.16;98664.41;4950495;29;20479;-68
2021/12/22 07:07:49;;;;;;;20.50;5.03;;;;;;;-13.56;44.25;98672.41;4958681;28;20047;-68
2021/12/22 07:10:15;;;;;;;32.70;4.90;;;;;;;-13.40;44.36;98669.13;4935018;29;20517;-69
2021/12/22 07:12:48;;;;;;;15.67;4.67;;;;;;;-13.23;44.03;98670.09;4949928;29;20540;-70
2021/12/22 07:15:15;;;;;;;24.70;6.87;;;;;;;-13.21;43.97;98672.59;4943471;29;20118;-69
2021/12/22 07:17:41;;;;;;;20.25;7.03;;;;;;;-13.08;43.50;98678.31;4967910;28;20061;-67
2021/12/22 07:20:11;;;;;;;23.93;6.83;;;;;;;-12.98;43.55;98681.69;4962253;28;20051;-68
2021/12/22 07:22:37;;;;;;;17.93;5.73;;;;;;;-12.84;43.41;98674.25;4951041;28;20090;-68
2021/12/22 07:25:05;;;;;;;15.70;4.75;;;;;;;-12.78;43.55;98671.00;4950944;28;20047;-68
2021/12/22 07:27:31;;;;;;;;;;;;;;;-12.64;43.25;98681.97;4945950;29;20452;-68
2021/12/22 07:29:57;;;;;;;10.83;3.63;;;;;;;-12.66;43.34;98682.13;4951852;28;19926;-69
2021/12/22 07:32:23;;;;;;;12.70;4.27;;;;;;;-12.59;43.40;98687.63;4949506;28;20121;-69
2021/12/22 07:35:03;;;;;;;15.40;3.70;;;;;;;-12.48;43.11;98704.97;4940578;28;20127;-67
2021/12/22 07:37:42;;;;;;;12.20;3.43;;;;;;;-12.50;43.37;98699.03;4950911;28;20059;-68
2021/12/22 07:40:11;;;;;;;12.33;3.70;;;;;;;-12.48;43.50;98697.91;4937891;29;20051;-68
2021/12/22 07:42:37;;;;;;;11.33;4.00;;;;;;;-12.22;43.16;98701.53;4958033;28;20075;-68
2021/12/22 07:45:05;;;;;;;12.20;4.07;;;;;;;-12.13;42.87;98700.59;4946347;28;20071;-70
2021/12/22 07:47:31;;;;;;;11.57;4.00;;;;;;;-12.11;42.79;98690.72;4956196;28;21054;-69
2021/12/22 07:49:57;;;;;;;14.57;4.13;;;;;;;-11.97;42.99;98692.75;4948560;28;20098;-69
2021/12/22 07:52:27;;;;;;;9.83;3.60;;;;;;;-11.83;42.78;98686.09;4952616;28;20102;-71
2021/12/22 07:54:54;;;;;;;11.13;3.80;;;;;;;-11.77;42.36;98695.19;4950581;29;20055;-70
2021/12/22 07:57:20;;;;;;;13.68;3.80;;;;;;;-11.88;42.58;98690.97;4953488;29;20428;-69
2021/12/22 07:59:47;;;;;;;12.13;4.40;;;;;;;-11.79;42.66;98697.13;4947473;28;20074;-70
2021/12/22 08:02:13;;;;;;;14.33;4.43;;;;;;;-11.76;42.14;98706.53;4952448;28;20067;-70
2021/12/22 08:04:39;;;;;;;15.23;4.87;;;;;;;-11.71;42.38;98715.63;4944768;29;20055;-69
2021/12/22 08:07:06;;;;;;;19.00;5.53;;;;;;;-11.64;41.91;98715.84;4948134;29;20390;-69
2021/12/22 08:09:32;;;;;;;14.37;5.57;;;;;;;-11.73;41.97;98701.78;4955745;28;20066;-70
2021/12/22 08:12:04;;;;;;;20.93;5.20;;;;;;;-11.73;41.81;98709.69;4949257;28;20358;-69
2021/12/22 08:14:31;;;;;;;15.57;5.47;;;;;;;-11.76;42.09;98704.75;4948176;29;20047;-68
2021/12/22 08:16:57;;;;;;;17.80;5.33;;;;;;;-11.78;42.05;98708.50;4952747;28;20051;-69
2021/12/22 08:19:23;;;;;;;19.00;5.10;;;;;;;-11.66;41.87;98698.50;4948525;28;20555;-70
2021/12/22 08:21:49;;;;;;;19.33;5.13;;;;;;;-11.36;41.64;98717.41;4946051;28;20075;-70
2021/12/22 08:24:15;;;;;;;15.20;4.67;;;;;;;-11.28;41.02;98710.34;4944452;28;20424;-70
2021/12/22 08:26:41;;;;;;;15.37;5.27;;;;;;;-11.23;40.86;98706.44;4949814;29;20055;-71
2021/12/22 08:29:09;;;;;;;22.60;5.10;;;;;;;-11.23;40.77;98709.88;4956418;28;20138;-71
2021/12/22 08:31:35;;;;;;;;;;;;;;;-11.07;40.63;98709.09;4957161;29;20051;-71
2021/12/22 08:34:03;;;;;;;27.40;4.77;;;;;;;-10.90;40.67;98709.94;4953706;28;20367;-69
2021/12/22 08:39:16;;;;;;;17.13;4.27;;;;;;;-10.82;40.51;98703.84;4953243;29;20043;-69
2021/12/22 08:41:47;;;;;;;13.65;4.88;;;;;;;-10.70;40.21;98697.25;4969045;28;20501;-71
2021/12/22 08:44:18;;;;;;;15.93;4.93;;;;;;;-10.70;39.85;98697.25;4940835;29;20135;-70
2021/12/22 08:46:48;;;;;;;13.80;4.57;;;;;;;-10.55;40.02;98700.06;4940490;29;20127;-72
2021/12/22 08:49:14;;;;;;;11.40;3.93;;;;;;;-10.45;39.67;98705.19;4953435;29;20226;-69
2021/12/22 08:51:41;;;;;;;12.07;4.90;;;;;;;-10.35;39.89;98704.16;4947741;28;20058;-69
2021/12/22 08:54:08;;;;;;;13.73;4.10;;;;;;;-10.28;39.52;98703.31;4952583;28;20047;-70
2021/12/22 08:56:35;;;;;;;13.57;4.97;;;;;;;-10.28;39.38;98702.50;4946536;29;20082;-68
2021/12/22 08:59:03;;;;;;;;;;;;;;;-10.17;39.45;98702.13;4951536;29;20061;-68
2021/12/22 09:01:31;;;;;;;16.80;3.77;;;;;;;-10.22;39.57;98699.19;4946742;28;20346;-68
2021/12/22 09:03:58;;;;;;;15.63;4.67;;;;;;;-10.00;39.41;98704.75;4953269;29;20102;-70
2021/12/22 09:06:25;;;;;;;11.40;4.72;;;;;;;-9.89;39.30;98709.69;4943672;28;20047;-69
2021/12/22 09:08:52;;;;;;;17.35;4.93;;;;;;;-9.95;38.60;98698.97;4963988;28;20203;-71
2021/12/22 09:11:19;;;;;;;;;;;;;;;-9.94;38.83;98701.44;4946225;29;20047;-70
2021/12/22 09:13:45;;;;;;;12.73;3.83;;;;;;;-9.81;38.91;98700.09;4936676;29;20403;-69
2021/12/22 09:16:12;;;;;;;11.68;4.45;;;;;;;-9.81;38.52;98698.25;4942419;29;20071;-70
2021/12/22 09:18:40;;;;;;;18.20;4.75;;;;;;;-9.71;38.55;98701.56;4949498;28;20052;-70
2021/12/22 09:21:08;;;;;;;13.50;5.37;;;;;;;-9.28;37.90;98695.91;4954926;28;20098;-70
2021/12/22 09:23:35;;;;;;;18.30;4.63;;;;;;;-8.76;37.37;98695.44;4940527;28;20174;-68
2021/12/22 09:26:01;;;;;;;14.73;5.47;;;;;;;-8.36;36.81;98695.25;4955030;29;20058;-69
2021/12/22 09:28:27;;;;;;;15.03;5.43;;;;;;;-7.66;36.14;98689.75;4950250;28;20468;-69
2021/12/22 09:30:53;;;;;;;14.00;4.93;;;;;;;-7.36;36.18;98690.53;4969680;28;20143;-69
2021/12/22 09:33:20;;;;;;;14.57;5.50;;;;;;;-7.44;35.96;98686.16;4953704;28;20154;-69
2021/12/22 09:36:23;;;;;;;14.13;5.72;;;;;;;-8.00;36.21;98660.94;4951437;29;20597;-68
2021/12/22 09:38:49;;;;;;;15.47;5.83;;;;;;;-7.48;36.27;98694.69;4947359;29;20058;-68
2021/12/22 09:41:16;;;;;;;14.13;5.40;;;;;;;-7.26;35.78;98691.09;4954934;29;20532;-69
2021/12/22 09:43:42;;;;;;;15.73;5.57;;;;;;;-7.24;35.87;98684.75;4955553;29;20055;-69
2021/12/22 09:46:14;;;;;;;13.67;5.10;;;;;;;-7.07;35.72;98696.81;4953466;28;20047;-68
2021/12/22 09:49:08;;;;;;;18.23;6.07;;;;;;;-7.01;35.21;98687.25;4954627;28;20051;-69
2021/12/22 09:54:05;;;;;;;15.43;5.05;;;;;;;-7.44;35.36;98685.34;4955286;28;20082;-69
2021/12/22 09:56:33;;;;;;;14.50;5.43;;;;;;;-7.59;35.86;98695.97;4948364;28;20051;-70
2021/12/22 09:58:59;;;;;;;19.20;5.70;;;;;;;-7.55;35.55;98694.63;4953826;28;20055;-69
2021/12/22 10:01:27;;;;;;;15.23;5.63;;;;;;;-7.67;35.16;98696.06;4954517;28;20051;-68
2021/12/22 10:03:56;;;;;;;14.33;5.50;;;;;;;-7.85;34.68;98707.88;4951794;28;20055;-68
2021/12/22 10:06:24;;;;;;;14.13;5.47;;;;;;;-7.83;34.44;98705.88;4955694;28;20691;-69
2021/12/22 10:08:54;;;;;;;13.88;5.68;;;;;;;-7.44;34.04;98712.72;4954944;28;20042;-71
2021/12/22 10:11:21;;;;;;;15.10;5.93;;;;;;;-6.99;34.05;98698.53;4953947;29;20075;-69
2021/12/22 10:13:47;;;;;;;14.97;5.87;;;;;;;-6.85;33.68;98702.16;4948536;28;20142;-68
2021/12/22 10:16:17;;;;;;;14.52;4.88;;;;;;;-6.67;33.11;98703.56;4967883;28;20054;-69
2021/12/22 10:18:44;;;;;;;17.50;5.77;;;;;;;-6.46;33.24;98706.22;4953549;28;20185;-70
2021/12/22 10:21:13;;;;;;;13.55;5.43;;;;;;;-6.42;33.21;98701.34;4953172;29;20054;-70
2021/12/22 10:23:43;;;;;;;16.57;5.53;;;;;;;-6.77;33.03;98701.22;4950137;28;20047;-69
2021/12/22 10:26:16;;;;;;;16.40;5.37;;;;;;;-6.73;33.32;98691.84;4946817;29;20062;-68
2021/12/22 10:28:50;;;;;;;14.90;5.83;;;;;;;-6.83;33.29;98700.16;4941673;29;20087;-69
2021/12/22 10:31:18;;;;;;;19.90;6.13;;;;;;;-6.87;33.28;98701.50;4943947;29;20047;-70
2021/12/22 10:33:46;;;;;;;14.10;5.73;;;;;;;-7.00;33.86;98694.22;4952685;29;20055;-67
2021/12/22 10:36:14;;;;;;;16.27;5.37;;;;;;;-7.01;33.04;98689.91;4954100;29;20516;-69
2021/12/22 10:38:49;;;;;;;14.00;4.93;;;;;;;-7.32;33.15;98688.34;4954587;28;20489;-70
2021/12/22 10:41:17;;;;;;;23.73;5.60;;;;;;;-7.58;33.54;98695.78;4953918;29;20049;-69
2021/12/22 10:43:45;;;;;;;15.30;5.30;;;;;;;-7.77;33.71;98704.31;4952116;28;20052;-69
2021/12/22 10:46:21;;;;;;;16.50;5.40;;;;;;;-8.03;34.12;98718.84;4953008;28;20206;-69
2021/12/22 10:51:57;;;;;;;12.17;4.40;;;;;;;-8.10;33.87;98708.13;4946906;29;20051;-69
2021/12/22 10:54:33;;;;;;;15.37;5.57;;;;;;;-8.09;33.89;98714.25;4952792;29;20051;-69
2021/12/22 10:57:03;;;;;;;14.70;4.73;;;;;;;-8.00;33.51;98710.50;4953358;28;20043;-69
2021/12/22 10:59:40;;;;;;;17.67;5.20;;;;;;;-7.94;33.41;98711.63;4952927;29;20040;-69
2021/12/22 11:02:07;;;;;;;20.35;6.25;;;;;;;-7.65;33.48;98716.09;4970200;28;20105;-69
2021/12/22 11:04:37;;;;;;;16.08;5.40;;;;;;;-7.48;33.00;98719.41;4951849;28;20143;-69
2021/12/22 11:07:11;;;;;;;14.13;5.30;;;;;;;-7.60;33.21;98719.06;4952951;28;20085;-69
2021/12/22 11:09:37;;;;;;;18.00;6.60;;;;;;;-7.72;33.63;98718.69;4969260;28;20495;-70
2021/12/22 11:12:06;;;;;;;23.03;5.47;;;;;;;-7.72;33.49;98713.38;4949012;28;20040;-70
2021/12/22 11:14:36;;;;;;;14.07;5.57;;;;;;;-7.98;33.67;98719.94;4953371;29;20138;-70
2021/12/22 11:17:06;;;;;;;13.13;5.20;;;;;;;-8.31;33.90;98728.22;4950866;29;20035;-69
2021/12/22 11:19:34;;;;;;;16.33;5.80;;;;;;;-8.47;34.39;98729.16;4951987;29;20159;-70
2021/12/22 11:22:13;;;;;;;18.50;5.70;;;;;;;-8.83;34.46;98722.63;4930625;29;20043;-70
2021/12/22 11:24:43;;;;;;;13.83;5.40;;;;;;;-9.09;34.91;98736.19;4953024;29;20146;-70
2021/12/22 11:27:14;;;;;;;13.93;5.33;;;;;;;-9.25;34.95;98734.47;4965802;28;20071;-69
2021/12/22 11:29:42;;;;;;;18.20;5.27;;;;;;;-9.60;35.61;98733.91;4959507;28;20090;-70
2021/12/22 11:32:10;;;;;;;14.37;4.87;;;;;;;-9.66;35.15;98735.44;4949962;29;20146;-70
2021/12/22 11:34:38;;;;;;;19.08;5.20;;;;;;;-9.64;35.25;98736.09;4942285;28;20539;-70
2021/12/22 11:37:05;;;;;;;;;;;;;;;-9.72;35.48;98747.53;4935880;29;20094;-70
2021/12/22 11:39:32;;;;;;;14.55;4.60;;;;;;;-9.73;35.25;98747.69;4946098;28;19926;-70
2021/12/22 11:42:02;;;;;;;13.68;4.80;;;;;;;-9.95;35.52;98743.94;4947120;28;20639;-68
2021/12/22 11:44:32;;;;;;;15.60;4.90;;;;;;;-9.97;35.71;98749.41;4951700;29;20066;-70
2021/12/22 11:47:00;;;;;;;16.83;5.27;;;;;;;-10.18;36.01;98740.16;4950236;29;20051;-69
2021/12/22 11:49:28;;;;;;;15.77;4.53;;;;;;;-10.05;35.99;98746.75;4948297;28;20498;-70
2021/12/22 11:51:56;;;;;;;12.40;4.47;;;;;;;-9.91;35.95;98759.31;4967474;28;20147;-70
2021/12/22 11:54:27;;;;;;;15.55;4.82;;;;;;;-9.89;35.73;98762.59;4951228;28;20058;-70